Wye River — WDE3583 — position and weather

sailwx.info

Track history (hours):
 
Tides and Currents Weather Stations Pressure Air Temp Water Temp Dewpoint Dewpoint Depression Visibility Wind Speed Wind Dir Waves Ship Positions

Wye River

Owner: Vane Line Bunkering, Inc., Baltimore, MD. More information available from US FCC via Universal Licensing System and Coast Guard Vessel Documentation Center.

Last reported at 2016-May-27 13:20 UTC. Time now 2016-May-30 20:18 UTC.
Position N 31°45' W 080°48'.

Length 30 m; draft 4.3 m.

Type: Tow > 200 m length. MMSI: 367341190.

Date/timePositionNaut miles runAvg speedWind from/ knotsBaromVisibWave heightAir tempDewpointWater temp
2016-May-27 13:20N 31°45' W 080°48'5 5.9
2016-May-27 12:34N 31°49' W 080°45'6 5.7
2016-May-27 11:33N 31°55' W 080°45'4 4.3
2016-May-27 10:34N 31°59' W 080°46'8 8.0
2016-May-27 09:34N 32°02' W 080°55'7 7.4
2016-May-27 08:34N 32°05' W 081°03'3 3.3
2016-May-27 07:34N 32°06' W 081°07'0 0.1
2016-May-27 06:34N 32°06' W 081°06'0 0.0
2016-May-27 05:34N 32°06' W 081°06'0 0.0
2016-May-27 04:34N 32°06' W 081°06'0 0.0
2016-May-27 03:34N 32°06' W 081°06'0 0.0
2016-May-27 02:34N 32°06' W 081°06'0 0.0
2016-May-27 01:34N 32°06' W 081°06'0 0.0
2016-May-27 00:34N 32°06' W 081°06'0 0.2
2016-May-26 23:34N 32°06' W 081°06'0 0.0
2016-May-26 22:34N 32°06' W 081°06'0 0.0
2016-May-26 20:32N 32°06' W 081°06'0 0.2
2016-May-26 19:33N 32°06' W 081°07'4 4.2
2016-May-26 18:34N 32°05' W 081°02'6 5.9
2016-May-26 17:33N 32°02' W 080°55'8 7.4
2016-May-26 16:28N 31°59' W 080°47'297 7.4
2016-May-25 00:07N 27°05' W 079°59'5 9.9
2016-May-24 23:33N 26°60' W 079°59'2310.1
2016-May-24 21:17N 26°37' W 079°59'810.4
2016-May-24 20:34N 26°29' W 079°60'1010.5
2016-May-24 19:34N 26°19' W 080°01'9 9.5
2016-May-24 18:34N 26°09' W 080°03'6 5.6
2016-May-24 17:33N 26°04' W 080°04'10 9.4
2016-May-24 16:33N 25°54' W 080°03'1110.7
2016-May-24 15:33N 25°44' W 080°01'  
Track history (hours):
 
Tides and Currents Weather Stations Pressure Air Temp Water Temp Dewpoint Dewpoint Depression Visibility Wind Speed Wind Dir Waves Ship Positions

Wye River

Owner: Vane Line Bunkering, Inc., Baltimore, MD. More information available from US FCC via Universal Licensing System and Coast Guard Vessel Documentation Center.

Last reported at 2016-May-27 13:20 UTC. Time now 2016-May-30 20:18 UTC.
Position N 31°45' W 080°48'.

Length 30 m; draft 4.3 m.

Type: Tow > 200 m length. MMSI: 367341190.

Date/timePositionNaut miles runAvg speedWind from/ knotsBaromVisibWave heightAir tempDewpointWater temp
2016-May-27 13:20N 31°45' W 080°48'5 5.9
2016-May-27 12:34N 31°49' W 080°45'6 5.7
2016-May-27 11:33N 31°55' W 080°45'4 4.3
2016-May-27 10:34N 31°59' W 080°46'8 8.0
2016-May-27 09:34N 32°02' W 080°55'7 7.4
2016-May-27 08:34N 32°05' W 081°03'3 3.3
2016-May-27 07:34N 32°06' W 081°07'0 0.1
2016-May-27 06:34N 32°06' W 081°06'0 0.0
2016-May-27 05:34N 32°06' W 081°06'0 0.0
2016-May-27 04:34N 32°06' W 081°06'0 0.0
2016-May-27 03:34N 32°06' W 081°06'0 0.0
2016-May-27 02:34N 32°06' W 081°06'0 0.0
2016-May-27 01:34N 32°06' W 081°06'0 0.0
2016-May-27 00:34N 32°06' W 081°06'0 0.2
2016-May-26 23:34N 32°06' W 081°06'0 0.0
2016-May-26 22:34N 32°06' W 081°06'0 0.0
2016-May-26 20:32N 32°06' W 081°06'0 0.2
2016-May-26 19:33N 32°06' W 081°07'4 4.2
2016-May-26 18:34N 32°05' W 081°02'6 5.9
2016-May-26 17:33N 32°02' W 080°55'8 7.4
2016-May-26 16:28N 31°59' W 080°47'297 7.4
2016-May-25 00:07N 27°05' W 079°59'5 9.9
2016-May-24 23:33N 26°60' W 079°59'2310.1
2016-May-24 21:17N 26°37' W 079°59'810.4
2016-May-24 20:34N 26°29' W 079°60'1010.5
2016-May-24 19:34N 26°19' W 080°01'9 9.5
2016-May-24 18:34N 26°09' W 080°03'6 5.6
2016-May-24 17:33N 26°04' W 080°04'10 9.4
2016-May-24 16:33N 25°54' W 080°03'1110.7
2016-May-24 15:33N 25°44' W 080°01'  

Dump ship's entire track history